Time;durP1;ratioP1;P1;durP2;ratioP2;P2;SDS_P1;SDS_P2;PMS_P1;PMS_P2;Temp;Humidity;BMP_temperature;BMP_pressure;BME280_temperature;BME280_humidity;BME280_pressure;Samples;Min_cycle;Max_cycle;Signal;HPM_P1;HPM_P2
2022/10/08 00:01:04;;;;;;;32.15;27.88;;;12.30;99.90;;;;;;5071024;28;20032;-53
2022/10/08 00:03:32;;;;;;;31.70;26.05;;;12.40;99.90;;;;;;5065230;28;20040;-53
2022/10/08 00:06:00;;;;;;;30.77;25.80;;;12.50;99.90;;;;;;5065534;28;20097;-53
2022/10/08 00:08:28;;;;;;;29.23;26.00;;;12.40;99.90;;;;;;5069220;28;20052;-52
2022/10/08 00:10:59;;;;;;;29.92;26.73;;;12.30;99.90;;;;;;5070308;28;20029;-53
2022/10/08 00:13:27;;;;;;;31.13;26.03;;;12.20;99.90;;;;;;5071451;28;20044;-54
2022/10/08 00:15:53;;;;;;;28.08;25.00;;;12.00;99.90;;;;;;5070830;28;20024;-54
2022/10/08 00:18:19;;;;;;;28.27;24.38;;;12.30;99.90;;;;;;5047425;28;20062;-52
2022/10/08 00:20:45;;;;;;;31.60;25.70;;;12.50;99.90;;;;;;5064115;28;20025;-52
2022/10/08 00:23:11;;;;;;;26.35;23.63;;;12.50;99.90;;;;;;5069727;28;20520;-52
2022/10/08 00:25:42;;;;;;;27.05;24.15;;;12.60;99.90;;;;;;5050788;28;21758;-53
2022/10/08 00:28:12;;;;;;;29.33;24.33;;;12.70;99.90;;;;;;5069913;28;20024;-54
2022/10/08 00:30:39;;;;;;;33.83;28.10;;;12.70;99.90;;;;;;5069944;28;20115;-52
2022/10/08 00:33:07;;;;;;;28.63;25.70;;;12.40;99.90;;;;;;5070379;28;20386;-53
2022/10/08 00:35:37;;;;;;;28.83;25.73;;;12.30;99.90;;;;;;5060879;28;20028;-51
2022/10/08 00:38:04;;;;;;;29.20;26.23;;;12.30;99.90;;;;;;5068819;28;20029;-55
2022/10/08 00:40:30;;;;;;;32.28;25.27;;;12.40;99.90;;;;;;5067889;28;20051;-54
2022/10/08 00:42:59;;;;;;;26.60;23.75;;;12.30;99.90;;;;;;5071339;28;20476;-55
2022/10/08 00:45:25;;;;;;;30.02;23.08;;;12.50;99.90;;;;;;5067848;28;20024;-56
2022/10/08 00:47:51;;;;;;;28.00;22.55;;;12.60;99.90;;;;;;5065947;28;20031;-55
2022/10/08 00:50:25;;;;;;;27.40;23.85;;;12.60;99.90;;;;;;5068319;28;20067;-54
2022/10/08 00:52:55;;;;;;;28.20;24.77;;;12.40;99.90;;;;;;5071422;28;20682;-54
2022/10/08 00:55:22;;;;;;;30.48;25.05;;;12.30;99.90;;;;;;5071135;28;20463;-54
2022/10/08 00:57:49;;;;;;;33.50;25.88;;;12.20;99.90;;;;;;5069440;28;20067;-55
2022/10/08 01:00:19;;;;;;;31.20;25.75;;;12.00;99.90;;;;;;5070127;28;20021;-55
2022/10/08 01:02:45;;;;;;;33.47;26.58;;;11.70;99.90;;;;;;5068541;28;20051;-55
2022/10/08 01:05:15;;;;;;;30.52;27.15;;;11.40;99.90;;;;;;5070531;28;20189;-55
2022/10/08 01:07:52;;;;;;;32.45;28.20;;;11.20;99.90;;;;;;5071533;28;20021;-53
2022/10/08 01:10:32;;;;;;;32.72;27.67;;;11.20;99.90;;;;;;5070900;28;20540;-54
2022/10/08 01:13:26;;;;;;;31.85;27.42;;;11.20;99.90;;;;;;5068936;28;20426;-53
2022/10/08 01:16:31;;;;;;;31.98;27.75;;;11.10;99.90;;;;;;5068451;28;20089;-54
2022/10/08 01:19:04;;;;;;;32.38;27.50;;;11.40;99.90;;;;;;4999585;28;20074;-56
2022/10/08 01:21:42;;;;;;;33.10;28.33;;;11.40;99.90;;;;;;4991664;28;20549;-53
2022/10/08 01:27:28;;;;;;;35.45;28.77;;;11.20;99.90;;;;;;4991659;28;20509;-53
2022/10/08 01:29:55;;;;;;;44.38;34.00;;;11.10;99.90;;;;;;5005238;28;20037;-53
2022/10/08 01:32:26;;;;;;;121.13;37.47;;;11.20;99.90;;;;;;5005093;28;20513;-53
2022/10/08 01:35:01;;;;;;;117.75;36.95;;;11.10;99.90;;;;;;4999444;28;20030;-53
2022/10/08 01:37:35;;;;;;;75.03;34.90;;;11.20;99.90;;;;;;5005782;28;20060;-52
2022/10/08 01:40:04;;;;;;;47.35;31.67;;;11.30;99.90;;;;;;5004897;28;20164;-54
2022/10/08 01:42:33;;;;;;;52.33;31.88;;;11.40;99.90;;;;;;4972700;28;20034;-54
2022/10/08 01:45:11;;;;;;;37.75;29.20;;;11.40;99.90;;;;;;4988653;28;20038;-53
2022/10/08 01:47:40;;;;;;;34.92;28.80;;;11.50;99.90;;;;;;5002625;28;20501;-53
2022/10/08 01:50:15;;;;;;;33.10;27.20;;;11.60;99.90;;;;;;5049901;28;20033;-53
2022/10/08 01:52:47;;;;;;;33.10;27.50;;;11.50;99.90;;;;;;5065326;28;20060;-53
2022/10/08 01:55:19;;;;;;;32.80;26.45;;;11.50;99.90;;;;;;5070101;28;20475;-53
2022/10/08 01:57:48;;;;;;;31.23;26.10;;;11.40;99.90;;;;;;5068504;28;20056;-53
2022/10/08 02:00:14;;;;;;;31.58;27.40;;;11.40;99.90;;;;;;5070565;28;20407;-53
2022/10/08 02:02:42;;;;;;;34.42;28.38;;;11.40;99.90;;;;;;5068620;28;20037;-53
2022/10/08 02:05:09;;;;;;;34.00;27.17;;;11.30;99.90;;;;;;5069184;28;20119;-52
2022/10/08 02:07:38;;;;;;;36.53;28.90;;;10.80;99.90;;;;;;5070522;28;20126;-54
2022/10/08 02:10:14;;;;;;;32.67;28.15;;;10.90;99.90;;;;;;5068145;28;20028;-53
2022/10/08 02:12:41;;;;;;;34.40;28.90;;;10.80;99.90;;;;;;5068895;28;20039;-52
2022/10/08 02:15:12;;;;;;;35.25;28.35;;;10.80;99.90;;;;;;5069807;28;20523;-53
2022/10/08 02:17:42;;;;;;;32.30;28.50;;;10.70;99.90;;;;;;5032211;28;20052;-55
2022/10/08 02:20:32;;;;;;;32.97;28.92;;;10.70;99.90;;;;;;5070099;28;20036;-53
2022/10/08 02:23:07;;;;;;;34.88;27.17;;;10.90;99.90;;;;;;5064691;28;20077;-53
2022/10/08 02:25:37;;;;;;;30.63;25.15;;;11.10;99.90;;;;;;5063265;28;20051;-54
2022/10/08 02:28:06;;;;;;;26.60;23.73;;;11.10;99.90;;;;;;5067929;28;20082;-53
2022/10/08 02:31:07;;;;;;;28.65;25.00;;;11.30;99.90;;;;;;5048968;28;20028;-56
2022/10/08 02:33:39;;;;;;;30.58;23.50;;;11.40;99.90;;;;;;5005894;28;20522;-53
2022/10/08 02:36:07;;;;;;;28.98;24.15;;;11.10;99.90;;;;;;5006752;28;20045;-53
2022/10/08 02:38:51;;;;;;;30.63;25.55;;;11.00;99.90;;;;;;5005771;28;20133;-54
2022/10/08 02:41:20;;;;;;;34.45;26.85;;;11.00;99.90;;;;;;5007014;28;20108;-53
2022/10/08 02:43:48;;;;;;;27.38;24.30;;;10.80;99.90;;;;;;4990558;28;20034;-52
2022/10/08 02:46:21;;;;;;;32.72;26.13;;;10.80;99.90;;;;;;4968118;28;20089;-54
2022/10/08 02:49:01;;;;;;;32.78;27.30;;;10.70;99.90;;;;;;4971938;28;20106;-55
2022/10/08 02:51:29;;;;;;;29.83;25.70;;;10.80;99.90;;;;;;4977868;28;20494;-53
2022/10/08 02:53:56;;;;;;;31.05;27.55;;;10.90;99.90;;;;;;4964801;28;20066;-54
2022/10/08 02:56:25;;;;;;;31.95;27.02;;;10.80;99.90;;;;;;4969776;28;20038;-52
2022/10/08 02:58:51;;;;;;;29.48;25.85;;;11.00;99.90;;;;;;4973792;28;20458;-53
2022/10/08 03:01:47;;;;;;;27.08;23.30;;;11.10;99.90;;;;;;4971438;28;20591;-54
2022/10/08 03:04:17;;;;;;;26.30;21.20;;;11.40;99.90;;;;;;4971234;28;20060;-53
2022/10/08 03:06:44;;;;;;;31.02;20.77;;;11.50;99.90;;;;;;4972485;28;20128;-53
2022/10/08 03:09:12;;;;;;;23.92;21.27;;;11.70;99.90;;;;;;4980271;28;20035;-55
2022/10/08 03:11:39;;;;;;;24.13;20.45;;;11.80;99.90;;;;;;5022286;28;20057;-53
2022/10/08 03:14:08;;;;;;;26.50;19.60;;;11.80;99.90;;;;;;5030811;28;20043;-55
2022/10/08 03:16:39;;;;;;;29.10;21.27;;;11.90;99.90;;;;;;5015196;28;20092;-53
2022/10/08 03:19:09;;;;;;;24.20;21.70;;;11.90;99.90;;;;;;5025695;28;20034;-54
2022/10/08 03:21:38;;;;;;;24.80;19.95;;;11.90;99.90;;;;;;5025519;28;20026;-53
2022/10/08 03:24:07;;;;;;;22.77;20.05;;;11.80;99.90;;;;;;5046961;28;20109;-54
2022/10/08 03:26:33;;;;;;;24.98;19.45;;;11.90;99.90;;;;;;5069586;28;20032;-53
2022/10/08 03:28:59;;;;;;;26.73;20.20;;;12.00;99.90;;;;;;5061105;28;20036;-55
2022/10/08 03:31:25;;;;;;;21.90;19.25;;;12.10;99.90;;;;;;5066930;28;20484;-54
2022/10/08 03:33:52;;;;;;;23.63;18.73;;;12.10;99.90;;;;;;5068036;28;20101;-52
2022/10/08 03:36:20;;;;;;;20.83;18.48;;;12.10;99.90;;;;;;5067318;28;20041;-54
2022/10/08 03:38:46;;;;;;;20.75;18.20;;;12.10;99.90;;;;;;5067968;28;20024;-55
2022/10/08 03:41:12;;;;;;;21.77;17.88;;;12.10;99.90;;;;;;5067870;28;20040;-54
2022/10/08 03:43:38;;;;;;;24.55;19.63;;;11.90;99.90;;;;;;5045405;28;20148;-55
2022/10/08 03:46:04;;;;;;;23.88;18.33;;;12.00;99.90;;;;;;5036127;28;20072;-54
2022/10/08 03:48:30;;;;;;;31.02;22.27;;;11.90;99.90;;;;;;5041581;28;20068;-55
2022/10/08 03:50:57;;;;;;;28.17;21.77;;;12.10;99.90;;;;;;5044086;28;20037;-55
2022/10/08 03:53:25;;;;;;;33.53;23.35;;;12.00;99.90;;;;;;5016259;28;20041;-54
2022/10/08 03:55:51;;;;;;;26.30;22.88;;;12.00;99.90;;;;;;5045018;28;20037;-53
2022/10/08 03:58:18;;;;;;;31.33;23.20;;;11.30;99.90;;;;;;5048313;28;20050;-54
2022/10/08 04:00:54;;;;;;;27.15;21.50;;;12.10;99.90;;;;;;5046227;28;20029;-56
2022/10/08 04:03:20;;;;;;;31.90;20.40;;;12.20;99.90;;;;;;5047305;28;20099;-53
2022/10/08 04:05:49;;;;;;;60.15;17.23;;;12.20;99.90;;;;;;4998810;28;20041;-55
2022/10/08 04:08:15;;;;;;;136.90;21.85;;;12.00;99.90;;;;;;5045433;28;20057;-54
2022/10/08 04:10:40;;;;;;;98.22;20.45;;;12.00;99.90;;;;;;5049036;28;20099;-54
2022/10/08 04:13:06;;;;;;;49.38;19.25;;;11.80;99.90;;;;;;5046151;28;20501;-54
2022/10/08 04:15:32;;;;;;;38.88;18.55;;;11.80;99.90;;;;;;5044663;28;20028;-53
2022/10/08 04:17:58;;;;;;;25.48;18.88;;;11.70;99.90;;;;;;5050235;28;20127;-54
2022/10/08 04:20:23;;;;;;;23.13;18.23;;;11.60;99.90;;;;;;5069693;28;20115;-54
2022/10/08 04:22:49;;;;;;;25.40;18.30;;;11.50;99.90;;;;;;5071361;28;20029;-54
2022/10/08 04:25:15;;;;;;;33.83;18.27;;;11.50;99.90;;;;;;5071554;28;20028;-54
2022/10/08 04:27:41;;;;;;;20.80;18.60;;;11.50;99.90;;;;;;5071856;28;20603;-53
2022/10/08 04:30:07;;;;;;;19.05;17.08;;;11.40;99.90;;;;;;5071666;28;20025;-54
2022/10/08 04:32:33;;;;;;;19.90;17.80;;;11.30;99.90;;;;;;5035084;28;20090;-55
2022/10/08 04:34:58;;;;;;;18.15;16.35;;;11.20;99.90;;;;;;5071731;28;20021;-52
2022/10/08 04:37:24;;;;;;;19.02;16.98;;;11.20;99.90;;;;;;5070680;28;20472;-53
2022/10/08 04:39:50;;;;;;;18.17;16.35;;;11.20;99.90;;;;;;5070095;28;20361;-54
2022/10/08 04:42:16;;;;;;;19.88;17.02;;;11.20;99.90;;;;;;5065492;28;20053;-54
2022/10/08 04:44:41;;;;;;;19.50;17.50;;;11.30;99.90;;;;;;5067525;28;20112;-54
2022/10/08 04:47:07;;;;;;;22.15;16.70;;;11.30;99.90;;;;;;5073505;28;20090;-54
2022/10/08 04:49:33;;;;;;;83.38;17.30;;;11.30;99.90;;;;;;5072618;28;20025;-54
2022/10/08 04:51:58;;;;;;;227.60;21.35;;;11.20;99.90;;;;;;5073553;28;20033;-54
2022/10/08 04:54:24;;;;;;;178.10;20.45;;;11.10;99.90;;;;;;5073500;28;20032;-54
2022/10/08 04:56:50;;;;;;;241.07;20.95;;;11.20;99.90;;;;;;5053023;28;20041;-52
2022/10/08 04:59:16;;;;;;;61.53;15.93;;;11.20;99.90;;;;;;5070804;28;20052;-53
2022/10/08 05:01:42;;;;;;;92.22;17.48;;;11.10;99.90;;;;;;5072394;28;20020;-54
2022/10/08 05:04:07;;;;;;;119.80;18.63;;;11.10;99.90;;;;;;5072064;28;20028;-54
2022/10/08 05:06:33;;;;;;;64.40;15.35;;;11.10;99.90;;;;;;5071103;28;20118;-55
2022/10/08 05:09:02;;;;;;;94.18;15.68;;;11.00;99.90;;;;;;5072869;28;20151;-54
2022/10/08 05:11:28;;;;;;;115.57;16.40;;;11.00;99.90;;;;;;5072608;28;20064;-53
2022/10/08 05:13:55;;;;;;;83.70;15.32;;;11.00;99.90;;;;;;5071164;28;20114;-55
2022/10/08 05:16:21;;;;;;;91.32;14.93;;;11.00;99.90;;;;;;5071616;28;20037;-55
2022/10/08 05:18:50;;;;;;;99.65;17.33;;;11.10;99.90;;;;;;5071366;28;20158;-54
2022/10/08 05:21:19;;;;;;;67.93;14.02;;;11.20;99.90;;;;;;5071018;28;20119;-54
2022/10/08 05:23:45;;;;;;;77.05;15.20;;;11.20;99.90;;;;;;5070849;28;20101;-54
2022/10/08 05:26:20;;;;;;;52.58;15.82;;;11.20;99.90;;;;;;5046262;28;20064;-54
2022/10/08 05:28:47;;;;;;;70.88;15.68;;;11.30;99.90;;;;;;5069319;28;20025;-55
2022/10/08 05:31:14;;;;;;;121.72;17.52;;;11.20;99.90;;;;;;5069310;28;20036;-54
2022/10/08 05:33:40;;;;;;;86.70;17.70;;;11.40;99.90;;;;;;5070378;28;20036;-53
2022/10/08 05:36:08;;;;;;;163.43;16.92;;;11.50;99.90;;;;;;5068578;28;20031;-53
2022/10/08 05:38:34;;;;;;;73.25;16.67;;;11.60;99.90;;;;;;5055723;28;20121;-52
2022/10/08 05:41:12;;;;;;;52.28;18.05;;;11.60;99.90;;;;;;5071532;28;20049;-54
2022/10/08 05:43:38;;;;;;;136.88;65.10;;;11.70;99.90;;;;;;5052018;28;20108;-52
2022/10/08 05:46:04;;;;;;;229.10;90.80;;;;;;;;;;5069491;28;20520;-52
2022/10/08 05:48:30;;;;;;;370.30;171.30;;;11.90;99.90;;;;;;5068358;28;20036;-53
2022/10/08 05:50:56;;;;;;;225.73;106.20;;;12.20;99.90;;;;;;5071606;28;20360;-52
2022/10/08 05:53:21;;;;;;;97.90;25.42;;;12.20;99.90;;;;;;5071572;28;20074;-54
2022/10/08 05:55:47;;;;;;;54.42;18.67;;;12.00;99.90;;;;;;5047750;28;20031;-54
2022/10/08 05:58:13;;;;;;;43.20;20.02;;;12.20;99.90;;;;;;5047435;28;20127;-53
2022/10/08 06:00:39;;;;;;;49.42;17.58;;;12.50;99.90;;;;;;5049051;28;20201;-54
2022/10/08 06:03:04;;;;;;;205.43;83.30;;;12.90;99.90;;;;;;5049204;28;20552;-54
2022/10/08 06:05:30;;;;;;;69.55;30.17;;;13.20;99.90;;;;;;5047351;28;20079;-54
2022/10/08 06:07:56;;;;;;;80.30;37.72;;;13.40;99.90;;;;;;5032108;28;20068;-53
2022/10/08 06:10:23;;;;;;;147.65;70.15;;;;;;;;;;5047123;28;20056;-53
2022/10/08 06:12:49;;;;;;;302.77;136.27;;;13.70;99.90;;;;;;5047280;28;20020;-53
2022/10/08 06:15:15;;;;;;;95.25;61.83;;;13.90;99.90;;;;;;5032462;28;20373;-54
2022/10/08 06:17:41;;;;;;;28.40;14.00;;;14.10;99.90;;;;;;5005852;28;20154;-55
2022/10/08 06:20:07;;;;;;;26.67;18.20;;;13.40;99.90;;;;;;5015577;28;20044;-54
2022/10/08 06:22:32;;;;;;;33.15;21.73;;;13.70;99.90;;;;;;4999737;28;20047;-54
2022/10/08 06:24:58;;;;;;;19.52;15.68;;;14.10;99.90;;;;;;5054189;28;20521;-54
2022/10/08 06:27:24;;;;;;;27.27;16.35;;;14.50;99.90;;;;;;5045423;28;20102;-53
2022/10/08 06:29:49;;;;;;;19.00;16.77;;;14.80;99.90;;;;;;5067581;28;20029;-53
2022/10/08 06:32:15;;;;;;;27.17;20.75;;;14.80;99.90;;;;;;5059397;28;20025;-55
2022/10/08 06:34:41;;;;;;;35.10;24.02;;;14.90;99.90;;;;;;5063538;28;20029;-54
2022/10/08 06:37:06;;;;;;;29.20;21.02;;;15.00;99.90;;;;;;5067914;28;20100;-53
2022/10/08 06:39:32;;;;;;;31.75;19.63;;;15.10;99.90;;;;;;5066696;28;20052;-54
2022/10/08 06:41:58;;;;;;;36.05;20.88;;;15.20;99.90;;;;;;5066158;28;20029;-54
2022/10/08 06:44:24;;;;;;;29.33;22.08;;;;;;;;;;5065967;28;20035;-55
2022/10/08 06:46:50;;;;;;;31.83;19.65;;;15.40;99.90;;;;;;5069261;28;20029;-53
2022/10/08 06:49:17;;;;;;;59.80;36.13;;;15.60;99.90;;;;;;5067323;28;20369;-54
2022/10/08 06:51:42;;;;;;;79.45;42.03;;;16.20;99.90;;;;;;5069527;28;20051;-55
2022/10/08 06:54:08;;;;;;;70.97;31.55;;;16.50;99.90;;;;;;4984985;28;20528;-56
2022/10/08 06:56:36;;;;;;;39.88;25.15;;;17.00;99.90;;;;;;5069358;28;20032;-53
2022/10/08 06:59:01;;;;;;;36.90;23.20;;;17.90;99.90;;;;;;5065880;28;20170;-54
2022/10/08 07:01:28;;;;;;;33.97;22.05;;;19.00;99.90;;;;;;5067889;28;20111;-55
2022/10/08 07:03:56;;;;;;;29.23;20.08;;;20.10;99.90;;;;;;5064799;28;20051;-55
2022/10/08 07:06:23;;;;;;;24.65;17.92;;;;;;;;;;5044864;28;20160;-52
2022/10/08 07:08:53;;;;;;;19.38;17.05;;;;;;;;;;5045418;28;20040;-54
2022/10/08 07:11:20;;;;;;;21.15;15.38;;;23.50;99.90;;;;;;5045948;28;20036;-52
2022/10/08 07:13:46;;;;;;;19.73;14.50;;;;;;;;;;5043310;28;20056;-52
2022/10/08 07:16:16;;;;;;;15.68;13.98;;;;;;;;;;5046105;28;20107;-52
2022/10/08 07:18:42;;;;;;;19.23;14.48;;;;;;;;;;5041589;28;20606;-52
2022/10/08 07:21:10;;;;;;;17.15;14.05;;;;;;;;;;5043640;28;20041;-52
2022/10/08 07:23:37;;;;;;;16.73;13.93;;;26.60;99.90;;;;;;5044414;28;20528;-53
2022/10/08 07:26:08;;;;;;;17.05;13.90;;;;;;;;;;5049654;28;20033;-53
2022/10/08 07:28:36;;;;;;;16.00;13.90;;;26.90;99.50;;;;;;5048239;28;21590;-53
2022/10/08 07:31:07;;;;;;;15.20;12.88;;;27.30;99.90;;;;;;5041782;28;20057;-54
2022/10/08 07:33:44;;;;;;;14.90;13.40;;;27.70;99.00;;;;;;5049657;28;20044;-54
2022/10/08 07:36:17;;;;;;;14.85;13.25;;;28.20;97.10;;;;;;5046760;28;20098;-53
2022/10/08 07:38:42;;;;;;;15.10;13.50;;;28.20;96.60;;;;;;5071493;28;20115;-54
2022/10/08 07:41:09;;;;;;;16.63;12.60;;;;;;;;;;5074388;28;20107;-55
2022/10/08 07:43:36;;;;;;;16.63;12.27;;;;;;;;;;5071970;28;20361;-53
2022/10/08 07:46:04;;;;;;;14.82;12.23;;;28.20;95.00;;;;;;5067650;28;20072;-60
2022/10/08 07:48:30;;;;;;;13.23;11.82;;;27.90;95.20;;;;;;5064824;28;20361;-56
2022/10/08 07:51:05;;;;;;;14.88;12.70;;;;;;;;;;5070788;28;20058;-55
2022/10/08 07:53:31;;;;;;;13.68;12.27;;;;;;;;;;5073696;28;20020;-60
2022/10/08 07:55:57;;;;;;;13.55;12.15;;;;;;;;;;5067658;28;20029;-59
2022/10/08 07:58:23;;;;;;;13.35;12.00;;;28.70;98.20;;;;;;5067223;28;20041;-55
2022/10/08 08:00:49;;;;;;;15.88;11.32;;;;;;;;;;5071962;28;20033;-64
2022/10/08 08:03:15;;;;;;;17.45;14.10;;;29.00;93.70;;;;;;5035394;28;20070;-60
2022/10/08 08:05:41;;;;;;;14.88;12.25;;;;;;;;;;5072451;28;20028;-57
2022/10/08 08:08:07;;;;;;;15.38;12.60;;;;;;;;;;5072889;28;20031;-61
2022/10/08 08:10:33;;;;;;;13.38;12.05;;;29.30;92.50;;;;;;5068946;28;20032;-60
2022/10/08 08:12:59;;;;;;;14.77;11.25;;;29.40;92.60;;;;;;5064847;28;20032;-60
2022/10/08 08:15:25;;;;;;;14.25;12.75;;;;;;;;;;5071807;28;20035;-60
2022/10/08 08:17:51;;;;;;;14.90;12.32;;;;;;;;;;5072860;28;20021;-61
2022/10/08 08:20:17;;;;;;;14.20;12.48;;;;;;;;;;5068576;28;20085;-58
2022/10/08 08:22:43;;;;;;;13.90;11.98;;;;;;;;;;5072479;28;20028;-56
2022/10/08 08:25:09;;;;;;;15.02;12.00;;;;;;;;;;5067160;28;20032;-56
2022/10/08 08:27:35;;;;;;;14.05;11.75;;;;;;;;;;5071415;28;20506;-54
2022/10/08 08:30:01;;;;;;;13.68;10.98;;;30.70;91.50;;;;;;5072562;28;20043;-54
2022/10/08 08:32:27;;;;;;;13.07;11.55;;;;;;;;;;5052784;28;20032;-55
2022/10/08 08:34:53;;;;;;;12.27;10.23;;;;;;;;;;5051774;28;20044;-57
2022/10/08 08:37:19;;;;;;;13.20;10.75;;;30.70;99.90;;;;;;5054588;28;20040;-54
2022/10/08 08:39:45;;;;;;;10.98;9.77;;;30.50;90.50;;;;;;5052704;28;20045;-57
2022/10/08 08:42:11;;;;;;;13.80;10.20;;;;;;;;;;5073617;28;20043;-53
2022/10/08 08:44:38;;;;;;;10.25;8.40;;;30.40;88.50;;;;;;5072580;28;20024;-54
2022/10/08 08:47:04;;;;;;;12.45;9.10;;;;;;;;;;5073766;28;20036;-54
2022/10/08 08:49:32;;;;;;;15.50;10.15;;;;;;;;;;5073063;28;20047;-54
2022/10/08 08:52:01;;;;;;;11.40;10.25;;;;;;;;;;5072657;28;20044;-54
2022/10/08 08:54:27;;;;;;;12.73;11.02;;;29.90;99.90;;;;;;5070281;28;20025;-53
2022/10/08 08:56:54;;;;;;;13.75;12.45;;;30.10;90.50;;;;;;5033916;28;20036;-54
2022/10/08 08:59:31;;;;;;;12.82;11.48;;;29.80;90.80;;;;;;5050915;28;20047;-54
2022/10/08 09:02:03;;;;;;;13.15;10.73;;;;;;;;;;5071419;28;20033;-57
2022/10/08 09:04:52;;;;;;;12.40;11.10;;;30.60;90.10;;;;;;5072457;28;20028;-54
2022/10/08 09:07:20;;;;;;;14.60;10.63;;;;;;;;;;5071389;28;20135;-54
2022/10/08 09:09:48;;;;;;;12.13;10.70;;;;;;;;;;5073250;28;20024;-56
2022/10/08 09:12:17;;;;;;;13.75;10.82;;;;;;;;;;5069079;28;20024;-57
2022/10/08 09:14:45;;;;;;;12.15;10.00;;;;;;;;;;5065553;28;20066;-55
2022/10/08 09:17:32;;;;;;;12.13;9.85;;;;;;;;;;5062963;28;20032;-54
2022/10/08 09:19:59;;;;;;;10.88;9.52;;;31.20;92.50;;;;;;5061361;28;20060;-58
2022/10/08 09:22:34;;;;;;;13.35;10.48;;;;;;;;;;5068446;28;20033;-54
2022/10/08 09:25:04;;;;;;;12.10;10.05;;;;;;;;;;5064918;28;20035;-59
2022/10/08 09:27:49;;;;;;;14.43;10.15;;;31.70;99.90;;;;;;5043431;28;20087;-54
2022/10/08 09:30:37;;;;;;;13.35;10.75;;;31.60;88.50;;;;;;5060486;28;20063;-56
2022/10/08 09:33:12;;;;;;;12.55;9.18;;;;;;;;;;5062105;28;20025;-57
2022/10/08 09:35:52;;;;;;;11.02;9.77;;;31.60;99.90;;;;;;5067821;28;20078;-58
2022/10/08 09:38:22;;;;;;;13.13;9.93;;;31.60;88.20;;;;;;5070891;28;20112;-57
2022/10/08 09:41:06;;;;;;;10.05;8.48;;;31.40;88.40;;;;;;5069523;28;20025;-55
2022/10/08 09:43:33;;;;;;;8.57;7.18;;;30.40;86.40;;;;;;5067921;28;20032;-54
2022/10/08 09:46:03;;;;;;;10.25;8.98;;;31.10;87.10;;;;;;5070621;28;20042;-54
2022/10/08 09:48:30;;;;;;;11.38;8.63;;;31.50;88.10;;;;;;5068745;28;20033;-54
2022/10/08 09:50:59;;;;;;;10.65;8.80;;;31.60;86.70;;;;;;5031052;28;20139;-56
2022/10/08 09:53:31;;;;;;;9.70;7.88;;;;;;;;;;5068453;28;20483;-58
2022/10/08 09:56:02;;;;;;;12.15;8.40;;;32.60;98.00;;;;;;5012636;28;20035;-53
2022/10/08 09:58:34;;;;;;;9.32;8.23;;;;;;;;;;5068694;28;20527;-53
2022/10/08 10:01:05;;;;;;;11.43;9.63;;;32.60;95.90;;;;;;5067983;28;20537;-56
2022/10/08 10:03:33;;;;;;;;;;;32.50;85.20;;;;;;5069153;28;20569;-55
2022/10/08 10:06:00;;;;;;;10.82;8.77;;;32.30;83.80;;;;;;5061778;28;19920;-57
2022/10/08 10:08:47;;;;;;;12.93;9.02;;;32.20;83.30;;;;;;5064082;28;20083;-57
2022/10/08 10:11:33;;;;;;;9.68;8.50;;;32.30;91.70;;;;;;5060530;28;20032;-56
2022/10/08 10:14:06;;;;;;;14.10;9.65;;;32.30;91.80;;;;;;5069228;28;20024;-54
2022/10/08 10:16:37;;;;;;;11.52;9.45;;;32.60;93.20;;;;;;4996314;28;20128;-56
2022/10/08 10:19:10;;;;;;;10.57;9.23;;;32.70;84.30;;;;;;5045855;28;20041;-55
2022/10/08 10:21:44;;;;;;;11.18;10.00;;;32.60;83.00;;;;;;5041902;28;20037;-56
2022/10/08 10:24:22;;;;;;;12.82;10.25;;;32.60;83.30;;;;;;5044886;28;20044;-55
2022/10/08 10:26:51;;;;;;;11.50;10.30;;;32.30;83.10;;;;;;5045706;28;20472;-55
2022/10/08 10:29:21;;;;;;;11.93;8.88;;;32.70;82.80;;;;;;5045227;28;20040;-55
2022/10/08 10:32:02;;;;;;;9.07;8.18;;;32.20;98.40;;;;;;5046907;28;20440;-56
2022/10/08 10:34:31;;;;;;;11.25;8.55;;;32.00;99.80;;;;;;5044940;28;20032;-58
2022/10/08 10:37:00;;;;;;;11.88;8.50;;;32.30;97.00;;;;;;5044220;28;20052;-58
2022/10/08 10:39:37;;;;;;;10.80;7.93;;;32.30;95.40;;;;;;5046515;28;20032;-55
2022/10/08 10:42:24;;;;;;;10.30;8.23;;;32.60;85.10;;;;;;5046596;28;20421;-55
2022/10/08 10:44:50;;;;;;;14.77;8.27;;;;;;;;;;5045738;28;20032;-56
2022/10/08 10:47:19;;;;;;;11.93;8.15;;;;;;;;;;5055983;28;20044;-54
2022/10/08 10:49:45;;;;;;;8.95;8.05;;;;;;;;;;5071586;28;20107;-59
2022/10/08 10:52:32;;;;;;;10.48;8.00;;;;;;;;;;5052896;28;20040;-58
2022/10/08 10:54:58;;;;;;;11.35;7.75;;;;;;;;;;5069219;28;20056;-56
2022/10/08 10:57:46;;;;;;;11.90;7.70;;;33.30;97.90;;;;;;5071179;28;20506;-54
2022/10/08 11:00:22;;;;;;;9.10;8.07;;;32.50;81.20;;;;;;5072387;28;20028;-57
2022/10/08 11:02:51;;;;;;;8.48;6.88;;;32.50;81.60;;;;;;5074022;28;20039;-57
2022/10/08 11:05:24;;;;;;;10.23;7.18;;;32.50;80.60;;;;;;5072955;28;20480;-56
2022/10/08 11:08:04;;;;;;;11.55;9.18;;;32.30;81.20;;;;;;5071693;28;20564;-57
2022/10/08 11:10:38;;;;;;;9.63;8.60;;;31.80;82.40;;;;;;5052998;28;20037;-58
2022/10/08 11:13:16;;;;;;;10.27;8.60;;;31.80;82.20;;;;;;5057905;28;20128;-58
2022/10/08 11:15:55;;;;;;;11.15;9.40;;;;;;;;;;5073161;28;20111;-56
2022/10/08 11:18:21;;;;;;;10.85;8.32;;;;;;;;;;5069297;28;20442;-54
2022/10/08 11:20:50;;;;;;;10.93;8.25;;;;;;;;;;5071869;28;20024;-55
2022/10/08 11:23:31;;;;;;;10.77;7.72;;;32.00;82.60;;;;;;5072619;28;20353;-58
2022/10/08 11:26:04;;;;;;;9.73;7.93;;;31.90;82.80;;;;;;5072411;28;20116;-57
2022/10/08 11:28:33;;;;;;;10.45;8.30;;;;;;;;;;5070610;28;20035;-55
2022/10/08 11:31:05;;;;;;;9.85;8.05;;;;;;;;;;5070948;28;20024;-57
2022/10/08 11:33:32;;;;;;;13.43;9.43;;;31.00;83.10;;;;;;5073604;28;20060;-54
2022/10/08 11:36:19;;;;;;;12.77;8.95;;;30.40;86.00;;;;;;5074227;28;20032;-53
2022/10/08 11:39:10;;;;;;;10.80;8.63;;;30.10;86.00;;;;;;5050908;28;20510;-57
2022/10/08 11:41:58;;;;;;;10.55;8.40;;;29.70;85.60;;;;;;5070227;28;20472;-54
2022/10/08 11:44:25;;;;;;;11.05;8.30;;;29.90;85.50;;;;;;5069927;28;20024;-54
2022/10/08 11:46:51;;;;;;;11.85;8.13;;;29.90;85.90;;;;;;5072438;28;20047;-55
2022/10/08 11:49:21;;;;;;;10.27;7.80;;;30.40;84.20;;;;;;5052902;28;20120;-54
2022/10/08 11:51:53;;;;;;;11.95;8.00;;;30.30;84.00;;;;;;5070768;28;20037;-52
2022/10/08 11:54:23;;;;;;;11.65;7.57;;;30.40;85.00;;;;;;5066279;28;20036;-57
2022/10/08 11:57:09;;;;;;;10.55;7.85;;;30.30;84.60;;;;;;5070965;28;20446;-50
2022/10/08 11:59:38;;;;;;;8.20;7.05;;;30.70;84.70;;;;;;5070984;28;20040;-52
2022/10/08 12:02:27;;;;;;;8.50;7.55;;;30.40;84.10;;;;;;5074326;28;20028;-53
2022/10/08 12:04:56;;;;;;;11.30;8.32;;;30.40;84.90;;;;;;5074522;28;20085;-54
2022/10/08 12:07:34;;;;;;;11.68;7.47;;;30.00;85.70;;;;;;5071715;28;20082;-57
2022/10/08 12:10:23;;;;;;;7.63;6.57;;;30.00;85.00;;;;;;5070201;28;20074;-62
2022/10/08 12:12:49;;;;;;;14.63;6.72;;;29.90;84.80;;;;;;5049432;28;20064;-60
2022/10/08 12:15:24;;;;;;;14.25;7.00;;;30.20;85.70;;;;;;5032061;28;20043;-69
2022/10/08 12:17:52;;;;;;;13.25;8.07;;;29.40;84.30;;;;;;5048840;28;20323;-67
2022/10/08 12:20:24;;;;;;;11.30;6.18;;;29.70;85.20;;;;;;5049985;28;20374;-57
2022/10/08 12:23:07;;;;;;;9.88;6.00;;;30.00;84.00;;;;;;5053603;28;20094;-56
2022/10/08 12:25:35;;;;;;;7.07;6.13;;;30.20;82.80;;;;;;5044301;28;20021;-59
2022/10/08 12:28:19;;;;;;;7.22;5.65;;;29.60;83.00;;;;;;5026660;28;20186;-58
2022/10/08 12:30:46;;;;;;;10.00;6.10;;;28.70;84.10;;;;;;5028214;28;20112;-53
2022/10/08 12:33:12;;;;;;;13.25;6.90;;;28.90;84.80;;;;;;5031784;28;20543;-58
2022/10/08 12:36:21;;;;;;;9.00;6.43;;;29.40;86.70;;;;;;5027156;28;20390;-53
2022/10/08 12:39:06;;;;;;;9.70;5.40;;;29.00;84.40;;;;;;4951155;28;20130;-58
2022/10/08 12:41:38;;;;;;;6.80;5.97;;;29.20;83.90;;;;;;4949035;28;20029;-53
2022/10/08 12:44:19;;;;;;;7.68;6.00;;;29.20;83.50;;;;;;4915962;29;20035;-50
2022/10/08 12:47:16;;;;;;;6.40;5.38;;;28.80;83.80;;;;;;4953328;28;20389;-55
2022/10/08 12:50:02;;;;;;;11.23;5.43;;;29.20;83.70;;;;;;4952549;28;20562;-57
2022/10/08 12:52:33;;;;;;;7.97;5.88;;;28.90;83.60;;;;;;4892328;29;20500;-53
2022/10/08 12:55:00;;;;;;;8.35;5.63;;;28.60;83.60;;;;;;4893627;29;20054;-56
2022/10/08 12:57:33;;;;;;;9.68;6.93;;;28.50;85.30;;;;;;4896762;29;20054;-56
2022/10/08 13:00:05;;;;;;;8.07;6.32;;;28.60;85.30;;;;;;4928015;29;20048;-57
2022/10/08 13:02:31;;;;;;;6.57;5.18;;;28.50;85.90;;;;;;4928148;29;20063;-55
2022/10/08 13:04:57;;;;;;;7.40;5.68;;;28.60;85.30;;;;;;4932307;29;20036;-53